Time;durP1;ratioP1;P1;durP2;ratioP2;P2;SDS_P1;SDS_P2;PMS_P1;PMS_P2;Temp;Humidity;BMP_temperature;BMP_pressure;BME280_temperature;BME280_humidity;BME280_pressure;Samples;Min_cycle;Max_cycle;Signal;HPM_P1;HPM_P2
2023/04/01 00:02:07;;;;;;;151.90;12.75;;;;;;;;;;4919566;28;21038;-66
2023/04/01 00:04:34;;;;;;;122.80;16.17;;;;;;;;;;4916147;28;20092;-65
2023/04/01 00:07:01;;;;;;;74.00;13.55;;;;;;;;;;4918675;28;20108;-66
2023/04/01 00:09:26;;;;;;;92.78;12.75;;;;;;;;;;4919050;28;20078;-66
2023/04/01 00:11:52;;;;;;;94.40;18.63;;;;;;;;;;4918533;28;20043;-65
2023/04/01 00:14:17;;;;;;;106.50;16.35;;;;;;;;;;4914883;28;20178;-64
2023/04/01 00:16:42;;;;;;;92.47;14.13;;;;;;;;;;4917922;28;20050;-64
2023/04/01 00:19:08;;;;;;;116.40;17.23;;;;;;;;;;4917747;28;20046;-65
2023/04/01 00:21:38;;;;;;;118.55;15.90;;;;;;;;;;4918855;28;20074;-65
2023/04/01 00:24:03;;;;;;;87.85;14.85;;;;;;;;;;4916567;28;20055;-65
2023/04/01 00:26:28;;;;;;;129.27;16.75;;;;;;;;;;4917553;28;20046;-65
2023/04/01 00:28:56;;;;;;;106.75;16.42;;;;;;;;;;4917777;28;20053;-65
2023/04/01 00:31:21;;;;;;;130.15;14.65;;;;;;;;;;4918531;28;20515;-64
2023/04/01 00:33:47;;;;;;;107.63;14.52;;;;;;;;;;4918988;28;20043;-65
2023/04/01 00:36:16;;;;;;;84.03;14.15;;;;;;;;;;4922487;28;20039;-64
2023/04/01 00:38:42;;;;;;;61.03;14.00;;;;;;;;;;4918726;28;20416;-65
2023/04/01 00:41:08;;;;;;;51.03;10.98;;;;;;;;;;4918986;28;20196;-64
2023/04/01 00:43:34;;;;;;;51.22;10.57;;;;;;;;;;4918776;28;20214;-65
2023/04/01 00:45:59;;;;;;;57.85;11.25;;;;;;;;;;4918237;28;20047;-65
2023/04/01 00:48:28;;;;;;;59.13;15.48;;;;;;;;;;4917737;28;20063;-64
2023/04/01 00:51:02;;;;;;;39.97;9.23;;;;;;;;;;4918272;28;20051;-65
2023/04/01 00:53:28;;;;;;;72.60;10.30;;;;;;;;;;4912430;28;20420;-65
2023/04/01 00:56:00;;;;;;;74.05;10.35;;;;;;;;;;4918658;28;20097;-66
2023/04/01 00:58:27;;;;;;;55.75;9.68;;;;;;;;;;4917409;28;20511;-65
2023/04/01 01:00:53;;;;;;;48.38;13.07;;;;;;;;;;4947587;28;20534;-65
2023/04/01 01:03:18;;;;;;;55.25;10.95;;;;;;;;;;4948745;28;20059;-64
2023/04/01 01:06:02;;;;;;;40.60;8.73;;;;;;;;;;4916342;28;20049;-65
2023/04/01 01:08:48;;;;;;;42.90;8.98;;;;;;;;;;4917657;28;20168;-65
2023/04/01 01:11:14;;;;;;;54.42;12.70;;;;;;;;;;4908030;28;20043;-66
2023/04/01 01:13:57;;;;;;;58.63;12.52;;;;;;;;;;4932665;28;20047;-66
2023/04/01 01:16:29;;;;;;;60.78;14.38;;;;;;;;;;4917770;28;20070;-65
2023/04/01 01:18:54;;;;;;;90.07;17.67;;;;;;;;;;4923190;28;20047;-67
2023/04/01 01:21:39;;;;;;;63.35;15.98;;;;;;;;;;4922828;28;20062;-65
2023/04/01 01:24:13;;;;;;;90.90;26.02;;;;;;;;;;4921430;28;20036;-66
2023/04/01 01:26:51;;;;;;;111.80;33.53;;;;;;;;;;4921583;28;20149;-65
2023/04/01 01:29:28;;;;;;;82.00;22.75;;;;;;;;;;4919710;28;20089;-65
2023/04/01 01:32:02;;;;;;;75.30;27.63;;;;;;;;;;4921960;28;20051;-64
2023/04/01 01:34:47;;;;;;;86.53;32.20;;;;;;;;;;4950102;28;20420;-64
2023/04/01 01:37:17;;;;;;;69.13;21.63;;;;;;;;;;4921265;28;20047;-64
2023/04/01 01:39:43;;;;;;;63.88;18.05;;;;;;;;;;4921643;28;20479;-64
2023/04/01 01:42:10;;;;;;;65.05;18.90;;;;;;;;;;4921285;28;20050;-64
2023/04/01 01:44:37;;;;;;;56.97;18.83;;;;;;;;;;4919820;28;20058;-64
2023/04/01 01:47:02;;;;;;;49.92;16.52;;;;;;;;;;4924879;28;20089;-65
2023/04/01 01:49:30;;;;;;;59.08;17.15;;;;;;;;;;4921211;28;20044;-64
2023/04/01 01:51:55;;;;;;;55.67;18.80;;;;;;;;;;4920980;28;20064;-64
2023/04/01 01:54:21;;;;;;;56.20;17.58;;;;;;;;;;4918223;28;20609;-66
2023/04/01 01:56:48;;;;;;;58.97;17.83;;;;;;;;;;4924064;28;20628;-65
2023/04/01 01:59:15;;;;;;;56.00;17.90;;;;;;;;;;4936169;28;20054;-65
2023/04/01 02:01:44;;;;;;;72.18;19.27;;;;;;;;;;4950944;28;20420;-66
2023/04/01 02:04:11;;;;;;;67.07;20.40;;;;;;;;;;4920729;28;20139;-65
2023/04/01 02:06:39;;;;;;;66.85;18.83;;;;;;;;;;4921829;28;20404;-65
2023/04/01 02:09:10;;;;;;;47.17;17.25;;;;;;;;;;4920487;28;20338;-65
2023/04/01 02:11:48;;;;;;;61.15;16.05;;;;;;;;;;4913774;28;20055;-65
2023/04/01 02:14:15;;;;;;;45.40;15.32;;;;;;;;;;4949928;28;20070;-65
2023/04/01 02:16:40;;;;;;;51.20;16.00;;;;;;;;;;4921154;28;20055;-64
2023/04/01 02:19:07;;;;;;;53.65;15.82;;;;;;;;;;4923146;28;20075;-66
2023/04/01 02:21:33;;;;;;;54.58;15.30;;;;;;;;;;4920741;28;20039;-65
2023/04/01 02:24:00;;;;;;;55.50;17.30;;;;;;;;;;4921722;28;20101;-64
2023/04/01 02:26:26;;;;;;;60.17;18.00;;;;;;;;;;4920218;28;20039;-65
2023/04/01 02:28:57;;;;;;;60.60;18.15;;;;;;;;;;4919522;28;20504;-64
2023/04/01 02:31:23;;;;;;;62.13;17.90;;;;;;;;;;4919990;28;20062;-64
2023/04/01 02:33:49;;;;;;;73.22;21.27;;;;;;;;;;4919999;28;20807;-65
2023/04/01 02:36:15;;;;;;;69.00;20.70;;;;;;;;;;4920942;28;20044;-65
2023/04/01 02:38:41;;;;;;;71.40;21.40;;;;;;;;;;4921103;28;20100;-65
2023/04/01 02:41:06;;;;;;;65.82;21.67;;;;;;;;;;4914936;28;20043;-66
2023/04/01 02:43:34;;;;;;;68.25;23.08;;;;;;;;;;4920944;28;20048;-65
2023/04/01 02:46:01;;;;;;;66.22;22.55;;;;;;;;;;4920218;28;20045;-65
2023/04/01 02:48:26;;;;;;;69.22;22.15;;;;;;;;;;4920695;28;20178;-65
2023/04/01 02:50:52;;;;;;;63.15;22.00;;;;;;;;;;4975458;28;20082;-65
2023/04/01 02:53:17;;;;;;;60.97;22.25;;;;;;;;;;4916066;28;20356;-65
2023/04/01 02:55:42;;;;;;;64.78;21.38;;;;;;;;;;4920333;28;20480;-65
2023/04/01 02:58:08;;;;;;;65.38;21.63;;;;;;;;;;4932509;28;20044;-65
2023/04/01 03:00:33;;;;;;;72.93;22.83;;;;;;;;;;4922445;28;20044;-65
2023/04/01 03:02:58;;;;;;;59.03;20.98;;;;;;;;;;4920553;28;20480;-65
2023/04/01 03:05:24;;;;;;;58.60;20.20;;;;;;;;;;4908078;28;20043;-65
2023/04/01 03:07:49;;;;;;;55.85;19.10;;;;;;;;;;4916295;28;20043;-65
2023/04/01 03:10:17;;;;;;;49.95;18.17;;;;;;;;;;4920629;28;20697;-66
2023/04/01 03:12:42;;;;;;;51.55;18.85;;;;;;;;;;4920166;28;20400;-65
2023/04/01 03:15:09;;;;;;;51.25;18.77;;;;;;;;;;4918689;28;20043;-66
2023/04/01 03:17:35;;;;;;;61.58;17.75;;;;;;;;;;4933452;28;20039;-65
2023/04/01 03:20:00;;;;;;;57.00;18.02;;;;;;;;;;4950307;28;20047;-65
2023/04/01 03:22:25;;;;;;;62.28;19.50;;;;;;;;;;4914482;28;20044;-65
2023/04/01 03:24:53;;;;;;;65.53;20.65;;;;;;;;;;4920117;28;20115;-65
2023/04/01 03:27:21;;;;;;;65.07;21.65;;;;;;;;;;4919856;28;20105;-65
2023/04/01 03:29:46;;;;;;;81.25;23.23;;;;;;;;;;4923093;28;20150;-66
2023/04/01 03:32:11;;;;;;;75.38;22.92;;;;;;;;;;4914286;28;20050;-64
2023/04/01 03:34:36;;;;;;;70.53;21.20;;;;;;;;;;4920537;28;20043;-64
2023/04/01 03:37:05;;;;;;;63.67;20.88;;;;;;;;;;4918605;28;20459;-64
2023/04/01 03:39:30;;;;;;;67.53;19.83;;;;;;;;;;4919895;28;20043;-64
2023/04/01 03:41:56;;;;;;;69.22;22.00;;;;;;;;;;4919681;28;20640;-66
2023/04/01 03:44:21;;;;;;;92.85;22.90;;;;;;;;;;4919423;28;20333;-64
2023/04/01 03:46:46;;;;;;;79.75;21.58;;;;;;;;;;4907302;28;20035;-65
2023/04/01 03:49:14;;;;;;;72.93;21.63;;;;;;;;;;4920137;28;20079;-65
2023/04/01 03:51:46;;;;;;;75.38;21.27;;;;;;;;;;4918998;28;20111;-64
2023/04/01 03:54:11;;;;;;;72.57;20.70;;;;;;;;;;4920085;28;20121;-64
2023/04/01 03:56:39;;;;;;;78.25;21.55;;;;;;;;;;4922396;28;20043;-65
2023/04/01 03:59:09;;;;;;;78.43;21.08;;;;;;;;;;4897692;28;20986;-65
2023/04/01 04:01:35;;;;;;;66.47;19.77;;;;;;;;;;4919689;28;20528;-65
2023/04/01 04:04:00;;;;;;;61.95;18.95;;;;;;;;;;4933556;28;20362;-65
2023/04/01 04:06:25;;;;;;;67.65;19.20;;;;;;;;;;4920690;28;20043;-65
2023/04/01 04:08:53;;;;;;;71.38;19.48;;;;;;;;;;4920976;28;21907;-66
2023/04/01 04:11:19;;;;;;;68.30;18.95;;;;;;;;;;4933606;28;20070;-65
2023/04/01 04:13:45;;;;;;;58.70;17.33;;;;;;;;;;4917651;28;20089;-65
2023/04/01 04:16:11;;;;;;;65.85;17.45;;;;;;;;;;4919695;28;20488;-66
2023/04/01 04:18:36;;;;;;;70.68;17.45;;;;;;;;;;4918702;28;20121;-65
2023/04/01 04:21:02;;;;;;;63.72;16.02;;;;;;;;;;4916773;28;20248;-65
2023/04/01 04:23:29;;;;;;;60.95;17.08;;;;;;;;;;4949881;28;20074;-65
2023/04/01 04:25:59;;;;;;;60.45;16.42;;;;;;;;;;4918985;28;20039;-65
2023/04/01 04:28:25;;;;;;;58.13;16.55;;;;;;;;;;4919710;28;20038;-66
2023/04/01 04:30:52;;;;;;;60.33;15.82;;;;;;;;;;4920603;28;20756;-66
2023/04/01 04:33:18;;;;;;;80.57;16.73;;;;;;;;;;4915924;28;20047;-65
2023/04/01 04:35:43;;;;;;;52.08;15.80;;;;;;;;;;4916761;28;21860;-66
2023/04/01 04:38:08;;;;;;;55.55;14.20;;;;;;;;;;4919790;28;20408;-66
2023/04/01 04:40:35;;;;;;;62.15;16.98;;;;;;;;;;4918578;28;20039;-65
2023/04/01 04:43:00;;;;;;;60.65;16.10;;;;;;;;;;4918573;28;20543;-65
2023/04/01 04:45:26;;;;;;;71.03;17.33;;;;;;;;;;4919384;28;20043;-64
2023/04/01 04:47:53;;;;;;;63.38;17.75;;;;;;;;;;4918453;28;20081;-65
2023/04/01 04:50:21;;;;;;;68.88;17.60;;;;;;;;;;4918293;28;20186;-66
2023/04/01 04:52:46;;;;;;;65.70;16.33;;;;;;;;;;4918269;28;20047;-65
2023/04/01 04:55:11;;;;;;;70.85;17.73;;;;;;;;;;4919573;28;20070;-64
2023/04/01 04:57:37;;;;;;;77.65;18.70;;;;;;;;;;4919667;28;20048;-66
2023/04/01 05:00:02;;;;;;;72.07;17.27;;;;;;;;;;4916919;28;20289;-65
2023/04/01 05:02:28;;;;;;;71.18;16.38;;;;;;;;;;4920476;28;20487;-66
2023/04/01 05:04:53;;;;;;;61.45;15.77;;;;;;;;;;4948609;28;20066;-66
2023/04/01 05:07:19;;;;;;;56.22;14.10;;;;;;;;;;4915754;28;20047;-66
2023/04/01 05:09:45;;;;;;;57.45;15.63;;;;;;;;;;4919427;28;20035;-66
2023/04/01 05:12:12;;;;;;;67.15;15.15;;;;;;;;;;4918182;28;20142;-65
2023/04/01 05:14:38;;;;;;;83.25;17.63;;;;;;;;;;4917878;28;20138;-66
2023/04/01 05:17:03;;;;;;;69.20;17.50;;;;;;;;;;4918038;28;20115;-65
2023/04/01 05:19:28;;;;;;;74.90;16.02;;;;;;;;;;4917900;28;20136;-65
2023/04/01 05:21:56;;;;;;;70.38;16.60;;;;;;;;;;4920698;28;20045;-68
2023/04/01 05:24:21;;;;;;;85.82;18.35;;;;;;;;;;4918656;28;20043;-66
2023/04/01 05:26:46;;;;;;;62.53;14.80;;;;;;;;;;4918034;28;20063;-64
2023/04/01 05:29:11;;;;;;;72.40;18.33;;;;;;;;;;4916274;28;21895;-65
2023/04/01 05:31:37;;;;;;;68.40;17.58;;;;;;;;;;4917275;28;20059;-66
2023/04/01 05:34:02;;;;;;;71.20;17.17;;;;;;;;;;4899878;28;20097;-65
2023/04/01 05:36:27;;;;;;;86.32;17.35;;;;;;;;;;4917939;28;20059;-65
2023/04/01 05:38:54;;;;;;;82.57;17.48;;;;;;;;;;4919202;28;20049;-65
2023/04/01 05:41:22;;;;;;;84.45;17.80;;;;;;;;;;4918144;28;20130;-67
2023/04/01 05:43:47;;;;;;;81.90;17.80;;;;;;;;;;4932010;28;20039;-65
2023/04/01 05:46:12;;;;;;;87.70;18.20;;;;;;;;;;4912019;28;20856;-65
2023/04/01 05:48:38;;;;;;;103.57;18.95;;;;;;;;;;4907540;28;20043;-65
2023/04/01 05:51:04;;;;;;;81.90;16.90;;;;;;;;;;4916516;28;20047;-66
2023/04/01 05:53:29;;;;;;;102.35;19.75;;;;;;;;;;4918587;28;20138;-66
2023/04/01 05:55:54;;;;;;;103.80;18.50;;;;;;;;;;4918330;28;20035;-65
2023/04/01 05:58:20;;;;;;;105.13;18.85;;;;;;;;;;4932395;28;20141;-66
2023/04/01 06:00:47;;;;;;;84.47;18.60;;;;;;;;;;4916783;28;20423;-65
2023/04/01 06:03:12;;;;;;;143.05;20.63;;;;;;;;;;4949979;28;20118;-66
2023/04/01 06:05:39;;;;;;;134.80;17.98;;;;;;;;;;4918791;28;20420;-66
2023/04/01 06:08:11;;;;;;;102.25;19.02;;;;;;;;;;4921791;28;20126;-67
2023/04/01 06:10:43;;;;;;;125.50;19.45;;;;;;;;;;4920541;28;20105;-65
2023/04/01 06:13:27;;;;;;;104.18;19.23;;;;;;;;;;4916387;28;20043;-65
2023/04/01 06:16:15;;;;;;;103.03;18.92;;;;;;;;;;4922102;28;20104;-67
2023/04/01 06:18:50;;;;;;;100.82;18.48;;;;;;;;;;4935894;28;20536;-65
2023/04/01 06:21:24;;;;;;;101.70;20.35;;;;;;;;;;4920693;28;20064;-66
2023/04/01 06:23:58;;;;;;;95.95;19.60;;;;;;;;;;4922169;28;20057;-67
2023/04/01 06:26:35;;;;;;;92.10;20.75;;;;;;;;;;4919327;28;20420;-65
2023/04/01 06:29:03;;;;;;;91.93;20.60;;;;;;;;;;4920772;28;20074;-66
2023/04/01 06:31:41;;;;;;;116.80;21.02;;;;;;;;;;4924925;28;20050;-68
2023/04/01 06:34:15;;;;;;;93.75;19.33;;;;;;;;;;4920011;28;20039;-65
2023/04/01 06:36:49;;;;;;;88.45;18.92;;;;;;;;;;4921541;28;20044;-65
2023/04/01 06:39:26;;;;;;;74.22;17.83;;;;;;;;;;4920781;28;20727;-65
2023/04/01 06:42:20;;;;;;;61.58;15.90;;;;;;;;;;4921276;28;20043;-65
2023/04/01 06:44:48;;;;;;;61.08;15.20;;;;;;;;;;4905003;28;20067;-66
2023/04/01 06:47:16;;;;;;;53.90;14.25;;;;;;;;;;4920328;28;20084;-65
2023/04/01 06:49:49;;;;;;;57.35;14.68;;;;;;;;;;4920767;28;20035;-66
2023/04/01 06:52:32;;;;;;;62.33;16.65;;;;;;;;;;4922391;28;20659;-65
2023/04/01 06:55:17;;;;;;;61.25;17.13;;;;;;;;;;4935472;28;20035;-66
2023/04/01 06:57:46;;;;;;;70.47;16.80;;;;;;;;;;4920064;28;20035;-65
2023/04/01 07:00:15;;;;;;;79.28;18.52;;;;;;;;;;4921037;28;20098;-65
2023/04/01 07:02:43;;;;;;;;;;;;;;;;;;4921395;28;20054;-64
2023/04/01 07:05:11;;;;;;;84.45;18.20;;;;;;;;;;4920978;28;20014;-66
2023/04/01 07:07:48;;;;;;;106.70;18.95;;;;;;;;;;4936180;28;20039;-66
2023/04/01 07:10:19;;;;;;;129.75;19.30;;;;;;;;;;4950152;28;22334;-66
2023/04/01 07:12:54;;;;;;;95.32;17.20;;;;;;;;;;4919586;28;20054;-66
2023/04/01 07:15:33;;;;;;;89.45;18.45;;;;;;;;;;4922241;28;20115;-67
2023/04/01 07:18:02;;;;;;;70.57;15.90;;;;;;;;;;4914030;28;20285;-66
2023/04/01 07:20:27;;;;;;;74.55;16.30;;;;;;;;;;4920118;28;20055;-65
2023/04/01 07:22:58;;;;;;;53.03;15.15;;;;;;;;;;4920885;28;20035;-66
2023/04/01 07:25:26;;;;;;;53.78;15.07;;;;;;;;;;4919986;28;20086;-66
2023/04/01 07:28:01;;;;;;;55.55;15.63;;;;;;;;;;4917492;28;20664;-65
2023/04/01 07:30:28;;;;;;;49.95;13.95;;;;;;;;;;4920548;28;20047;-66
2023/04/01 07:32:59;;;;;;;51.42;15.15;;;;;;;;;;4915200;28;20137;-65
2023/04/01 07:35:35;;;;;;;63.70;17.10;;;;;;;;;;4920140;28;20047;-66
2023/04/01 07:38:12;;;;;;;60.03;16.80;;;;;;;;;;4921291;28;20035;-65
2023/04/01 07:40:48;;;;;;;69.13;17.55;;;;;;;;;;4923413;28;20046;-65
2023/04/01 07:43:13;;;;;;;74.20;16.88;;;;;;;;;;4919042;28;20035;-66
2023/04/01 07:45:43;;;;;;;75.35;18.02;;;;;;;;;;4922922;28;20058;-66
2023/04/01 07:48:12;;;;;;;84.68;18.92;;;;;;;;;;4920715;28;20236;-65
2023/04/01 07:50:43;;;;;;;77.72;18.00;;;;;;;;;;4919456;28;20122;-66
2023/04/01 07:53:18;;;;;;;70.70;16.30;;;;;;;;;;4918493;28;20676;-67
2023/04/01 07:56:01;;;;;;;61.53;17.30;;;;;;;;;;4918552;28;20900;-65
2023/04/01 07:58:30;;;;;;;53.35;15.52;;;;;;;;;;4919236;28;20047;-66
2023/04/01 08:00:55;;;;;;;50.85;13.27;;;;;;;;;;4919767;28;20035;-66
2023/04/01 08:03:33;;;;;;;42.28;13.23;;;;;;;;;;4920381;28;20067;-66
2023/04/01 08:06:00;;;;;;;33.25;11.20;;;;;;;;;;4923151;28;20043;-67
2023/04/01 08:08:28;;;;;;;33.90;10.25;;;;;;;;;;4918614;28;20123;-66
2023/04/01 08:11:05;;;;;;;36.85;9.98;;;;;;;;;;4920811;28;20051;-66
2023/04/01 08:13:43;;;;;;;30.30;9.23;;;;;;;;;;4920153;28;22005;-65
2023/04/01 08:16:17;;;;;;;30.85;9.07;;;;;;;;;;4914713;28;20070;-66
2023/04/01 08:18:52;;;;;;;31.35;8.40;;;;;;;;;;4918437;28;20125;-67
2023/04/01 08:21:23;;;;;;;26.85;9.10;;;;;;;;;;4918456;28;20452;-68
2023/04/01 08:23:51;;;;;;;30.27;9.13;;;;;;;;;;4918740;28;20039;-66
2023/04/01 08:26:35;;;;;;;25.85;8.80;;;;;;;;;;4932373;28;20568;-67
2023/04/01 08:29:00;;;;;;;26.92;8.73;;;;;;;;;;4918652;28;20039;-67
2023/04/01 08:31:44;;;;;;;32.58;8.85;;;;;;;;;;4916943;28;20059;-66
2023/04/01 08:34:19;;;;;;;35.00;10.05;;;;;;;;;;4918429;28;20050;-67
2023/04/01 08:36:50;;;;;;;42.05;11.93;;;;;;;;;;4918674;28;20118;-66
2023/04/01 08:39:22;;;;;;;48.58;12.60;;;;;;;;;;4918724;28;20050;-66
2023/04/01 08:41:53;;;;;;;47.42;13.45;;;;;;;;;;4917659;28;20191;-67
2023/04/01 08:44:25;;;;;;;55.03;14.45;;;;;;;;;;4919359;28;20184;-67
2023/04/01 08:46:50;;;;;;;56.13;15.82;;;;;;;;;;4918805;28;20043;-67
2023/04/01 08:49:34;;;;;;;68.50;17.35;;;;;;;;;;4933558;28;20054;-67
2023/04/01 08:52:09;;;;;;;60.28;17.52;;;;;;;;;;4917683;28;20102;-66
2023/04/01 08:54:44;;;;;;;63.30;17.15;;;;;;;;;;4919025;28;20134;-67
2023/04/01 08:57:32;;;;;;;50.95;15.55;;;;;;;;;;4918002;28;20039;-65
2023/04/01 09:00:04;;;;;;;50.30;14.77;;;;;;;;;;4941217;28;20142;-66
2023/04/01 09:02:50;;;;;;;52.63;14.82;;;;;;;;;;4918911;28;20044;-66
2023/04/01 09:05:18;;;;;;;46.75;12.90;;;;;;;;;;4932010;28;20035;-65
2023/04/01 09:07:59;;;;;;;42.60;12.27;;;;;;;;;;4917531;28;20043;-65
2023/04/01 09:10:25;;;;;;;35.42;11.45;;;;;;;;;;4917753;28;20035;-67
2023/04/01 09:13:22;;;;;;;28.73;11.00;;;;;;;;;;4918498;28;20261;-67
2023/04/01 09:16:06;;;;;;;40.47;12.88;;;;;;;;;;4905988;28;21887;-65
2023/04/01 09:18:34;;;;;;;46.95;12.48;;;;;;;;;;4918133;28;20495;-65
2023/04/01 09:21:09;;;;;;;39.17;12.00;;;;;;;;;;4918958;28;20121;-67
2023/04/01 09:23:54;;;;;;;35.53;10.77;;;;;;;;;;4936901;28;20120;-67
2023/04/01 09:26:44;;;;;;;36.05;10.75;;;;;;;;;;4920567;28;20853;-66
2023/04/01 09:29:12;;;;;;;35.63;10.68;;;;;;;;;;4921543;28;20067;-66
2023/04/01 09:31:38;;;;;;;30.98;9.63;;;;;;;;;;4919064;28;20059;-65
2023/04/01 09:34:09;;;;;;;34.85;10.57;;;;;;;;;;4915507;28;20772;-67
2023/04/01 09:36:41;;;;;;;34.20;11.20;;;;;;;;;;4919762;28;20044;-67
2023/04/01 09:39:19;;;;;;;37.35;11.10;;;;;;;;;;4930998;28;20112;-66
2023/04/01 09:41:59;;;;;;;42.20;12.30;;;;;;;;;;4924230;28;20040;-65
2023/04/01 09:44:36;;;;;;;54.65;15.30;;;;;;;;;;4931431;28;20130;-66
2023/04/01 09:47:21;;;;;;;64.03;17.10;;;;;;;;;;4920869;28;20274;-69
2023/04/01 09:49:52;;;;;;;62.20;17.95;;;;;;;;;;4921989;28;20664;-66
2023/04/01 09:52:17;;;;;;;50.87;16.40;;;;;;;;;;4907936;28;21916;-66
2023/04/01 09:54:45;;;;;;;72.60;18.00;;;;;;;;;;4921767;28;20042;-66
2023/04/01 09:57:13;;;;;;;75.82;17.60;;;;;;;;;;4921128;28;20153;-65
2023/04/01 09:59:41;;;;;;;67.07;18.42;;;;;;;;;;4921623;28;20047;-65
2023/04/01 10:02:25;;;;;;;64.95;18.65;;;;;;;;;;4919760;28;20047;-67
2023/04/01 10:04:56;;;;;;;59.22;17.33;;;;;;;;;;4922499;28;20043;-67
2023/04/01 10:07:22;;;;;;;62.58;16.80;;;;;;;;;;4921544;28;20035;-67
2023/04/01 10:10:06;;;;;;;49.30;15.00;;;;;;;;;;4921709;28;20101;-66
2023/04/01 10:12:51;;;;;;;52.58;14.63;;;;;;;;;;5002689;28;20519;-66
2023/04/01 10:15:22;;;;;;;50.80;16.33;;;;;;;;;;4951322;28;20054;-66
2023/04/01 10:17:50;;;;;;;50.28;14.02;;;;;;;;;;4914828;28;20542;-68
2023/04/01 10:20:16;;;;;;;46.88;13.93;;;;;;;;;;4922417;28;20063;-65
2023/04/01 10:22:41;;;;;;;50.08;14.43;;;;;;;;;;4920357;28;20500;-67
2023/04/01 10:25:24;;;;;;;44.28;14.88;;;;;;;;;;4921202;28;20108;-68
2023/04/01 10:28:18;;;;;;;39.70;14.77;;;;;;;;;;4921319;28;20042;-65
2023/04/01 10:30:43;;;;;;;43.20;14.00;;;;;;;;;;4946036;28;20055;-67
2023/04/01 10:33:27;;;;;;;45.28;14.70;;;;;;;;;;4920798;28;20040;-67
2023/04/01 10:36:13;;;;;;;42.10;15.13;;;;;;;;;;4921489;28;20492;-67
2023/04/01 10:38:40;;;;;;;48.25;14.70;;;;;;;;;;5002559;28;20137;-66
2023/04/01 10:41:14;;;;;;;53.88;14.25;;;;;;;;;;4919214;28;20415;-67
2023/04/01 10:43:58;;;;;;;48.80;15.23;;;;;;;;;;4920215;28;20124;-67
2023/04/01 10:46:35;;;;;;;43.28;12.95;;;;;;;;;;4921327;28;20127;-66
2023/04/01 10:49:10;;;;;;;51.88;12.85;;;;;;;;;;5001743;28;20057;-66
2023/04/01 10:52:00;;;;;;;48.47;13.57;;;;;;;;;;4920613;28;20055;-66
2023/04/01 10:54:31;;;;;;;44.58;13.13;;;;;;;;;;4921085;28;20508;-66
2023/04/01 10:57:02;;;;;;;41.15;13.18;;;;;;;;;;4950021;28;20101;-67
2023/04/01 10:59:27;;;;;;;53.72;14.93;;;;;;;;;;4938615;28;20039;-67
2023/04/01 11:02:11;;;;;;;41.95;13.60;;;;;;;;;;4920879;28;20097;-65
2023/04/01 11:04:36;;;;;;;48.92;13.65;;;;;;;;;;4934481;28;20530;-66
2023/04/01 11:07:30;;;;;;;43.40;12.73;;;;;;;;;;4920996;28;20124;-66
2023/04/01 11:09:55;;;;;;;51.38;13.90;;;;;;;;;;4914383;28;20125;-66
2023/04/01 11:12:33;;;;;;;45.05;13.05;;;;;;;;;;4920596;28;20158;-66
2023/04/01 11:15:10;;;;;;;41.72;13.55;;;;;;;;;;4906712;28;20101;-66
2023/04/01 11:17:48;;;;;;;36.40;13.23;;;;;;;;;;4920847;28;20541;-66
2023/04/01 11:20:25;;;;;;;44.97;14.18;;;;;;;;;;4923608;28;20605;-65
2023/04/01 11:22:55;;;;;;;36.22;11.35;;;;;;;;;;4919487;28;20032;-67
2023/04/01 11:25:39;;;;;;;40.17;11.45;;;;;;;;;;4920553;28;20035;-67
2023/04/01 11:28:08;;;;;;;30.02;10.30;;;;;;;;;;4919833;28;20653;-67
2023/04/01 11:30:33;;;;;;;27.60;9.77;;;;;;;;;;4920528;28;20629;-67
2023/04/01 11:32:58;;;;;;;30.90;10.10;;;;;;;;;;4920375;28;20036;-67
2023/04/01 11:35:37;;;;;;;32.15;8.82;;;;;;;;;;4919703;28;20424;-67
2023/04/01 11:38:17;;;;;;;29.65;8.93;;;;;;;;;;4919945;28;20040;-67
2023/04/01 11:40:47;;;;;;;22.80;7.15;;;;;;;;;;4920527;28;20619;-67
2023/04/01 11:43:31;;;;;;;29.10;6.68;;;;;;;;;;4914740;28;20039;-66
2023/04/01 11:46:17;;;;;;;30.50;6.40;;;;;;;;;;4921430;28;20040;-67
2023/04/01 11:48:43;;;;;;;24.77;5.43;;;;;;;;;;4919942;28;20333;-67
2023/04/01 11:51:08;;;;;;;34.80;5.30;;;;;;;;;;4920765;28;20062;-67
2023/04/01 11:53:52;;;;;;;22.58;4.70;;;;;;;;;;4919848;28;20355;-66
2023/04/01 11:56:26;;;;;;;23.35;5.28;;;;;;;;;;4915157;28;20047;-66
2023/04/01 11:59:06;;;;;;;19.25;5.50;;;;;;;;;;4948947;28;20123;-66
2023/04/01 12:01:46;;;;;;;23.88;5.53;;;;;;;;;;4918281;28;20464;-66
2023/04/01 12:04:30;;;;;;;27.00;5.35;;;;;;;;;;4919077;28;20085;-67
2023/04/01 12:07:13;;;;;;;21.83;5.10;;;;;;;;;;4919532;28;20046;-66
2023/04/01 12:09:41;;;;;;;22.48;5.50;;;;;;;;;;4918899;28;20045;-67
2023/04/01 12:12:16;;;;;;;24.50;5.47;;;;;;;;;;4919659;28;20039;-67
2023/04/01 12:14:57;;;;;;;25.02;4.68;;;;;;;;;;4914193;28;20047;-67
2023/04/01 12:17:39;;;;;;;19.40;4.95;;;;;;;;;;4919884;28;20035;-66
2023/04/01 12:20:23;;;;;;;20.15;4.35;;;;;;;;;;4919215;28;20039;-66
2023/04/01 12:23:09;;;;;;;16.48;4.55;;;;;;;;;;4917274;28;20098;-66
2023/04/01 12:25:34;;;;;;;24.17;5.88;;;;;;;;;;4917590;28;20039;-67
2023/04/01 12:28:09;;;;;;;22.55;5.30;;;;;;;;;;4918590;28;22488;-65
2023/04/01 12:30:42;;;;;;;24.92;5.80;;;;;;;;;;4920069;28;20134;-67
2023/04/01 12:33:07;;;;;;;22.58;5.45;;;;;;;;;;4919035;28;20389;-66
2023/04/01 12:35:45;;;;;;;21.77;5.53;;;;;;;;;;4919856;28;20032;-66
2023/04/01 12:38:29;;;;;;;19.67;4.82;;;;;;;;;;4919273;28;20043;-65
2023/04/01 12:41:02;;;;;;;25.50;5.55;;;;;;;;;;4918845;28;20057;-65
2023/04/01 12:43:27;;;;;;;22.48;4.85;;;;;;;;;;4920444;28;20217;-66
2023/04/01 12:46:19;;;;;;;16.50;5.32;;;;;;;;;;4907137;28;20038;-65
2023/04/01 12:48:50;;;;;;;16.90;4.32;;;;;;;;;;4864806;28;20036;-65
2023/04/01 12:51:54;;;;;;;19.77;4.97;;;;;;;;;;4920696;28;20047;-66
2023/04/01 12:54:31;;;;;;;22.02;5.43;;;;;;;;;;4905643;28;20158;-66
2023/04/01 12:57:02;;;;;;;21.90;4.88;;;;;;;;;;4929717;28;20058;-67
2023/04/01 12:59:33;;;;;;;14.07;4.87;;;;;;;;;;4923573;28;20173;-67
2023/04/01 13:02:08;;;;;;;22.52;5.35;;;;;;;;;;4918983;28;20149;-66
2023/04/01 13:04:46;;;;;;;20.23;5.40;;;;;;;;;;4918357;28;20098;-67
2023/04/01 13:07:17;;;;;;;17.58;5.40;;;;;;;;;;4941786;28;20278;-67
2023/04/01 13:10:01;;;;;;;21.48;5.80;;;;;;;;;;4913299;28;20335;-65
2023/04/01 13:12:36;;;;;;;16.02;5.38;;;;;;;;;;4921768;28;20348;-67
2023/04/01 13:15:21;;;;;;;17.05;5.10;;;;;;;;;;4954090;28;20043;-66
2023/04/01 13:17:46;;;;;;;17.45;5.15;;;;;;;;;;4924435;28;20327;-66
2023/04/01 13:20:18;;;;;;;21.45;6.00;;;;;;;;;;4925288;28;20165;-66
2023/04/01 13:22:43;;;;;;;;;;;;;;;;;;4925394;28;20200;-67
2023/04/01 13:25:21;;;;;;;20.45;6.22;;;;;;;;;;4924755;28;19918;-67
2023/04/01 13:27:50;;;;;;;21.50;6.32;;;;;;;;;;4924335;28;21947;-67
2023/04/01 13:30:21;;;;;;;18.25;5.85;;;;;;;;;;4953743;28;20081;-68
2023/04/01 13:32:50;;;;;;;11.07;6.25;;;;;;;;;;4926871;28;20057;-66
2023/04/01 13:35:15;;;;;;;10.50;5.60;;;;;;;;;;4924047;28;20511;-67
2023/04/01 13:37:52;;;;;;;13.93;6.18;;;;;;;;;;4923431;28;20036;-66
2023/04/01 13:40:27;;;;;;;12.43;6.25;;;;;;;;;;4924189;28;21963;-66
2023/04/01 13:43:07;;;;;;;14.48;6.65;;;;;;;;;;4924075;28;20700;-66
2023/04/01 13:45:38;;;;;;;12.27;6.00;;;;;;;;;;4923318;28;20028;-68
2023/04/01 13:48:21;;;;;;;11.75;6.63;;;;;;;;;;4923584;28;20516;-66
2023/04/01 13:51:02;;;;;;;12.45;6.63;;;;;;;;;;4922901;28;20444;-67
2023/04/01 13:53:40;;;;;;;10.88;6.43;;;;;;;;;;4923254;28;20036;-67
2023/04/01 13:56:16;;;;;;;15.52;6.20;;;;;;;;;;4927270;28;20035;-67
2023/04/01 13:58:41;;;;;;;13.82;6.70;;;;;;;;;;4921958;28;20031;-67
2023/04/01 14:01:22;;;;;;;9.48;5.32;;;;;;;;;;4924113;28;20042;-68
2023/04/01 14:04:00;;;;;;;12.55;5.65;;;;;;;;;;4924129;28;20036;-67
2023/04/01 14:06:31;;;;;;;10.68;5.57;;;;;;;;;;4924571;28;20308;-67
2023/04/01 14:08:56;;;;;;;8.48;5.80;;;;;;;;;;4924180;28;20035;-67
2023/04/01 14:11:24;;;;;;;8.77;5.20;;;;;;;;;;4922031;28;20323;-67
2023/04/01 14:14:02;;;;;;;8.73;5.75;;;;;;;;;;4924133;28;20126;-68
2023/04/01 14:16:47;;;;;;;9.50;5.50;;;;;;;;;;4954867;28;20039;-66
2023/04/01 14:19:30;;;;;;;12.98;6.28;;;;;;;;;;4923714;28;20160;-68
2023/04/01 14:22:03;;;;;;;9.20;6.13;;;;;;;;;;4919679;28;20308;-67
2023/04/01 14:24:46;;;;;;;8.77;5.65;;;;;;;;;;4919994;28;20131;-66
2023/04/01 14:27:27;;;;;;;8.70;5.97;;;;;;;;;;4920469;28;20042;-67
2023/04/01 14:30:12;;;;;;;9.75;6.15;;;;;;;;;;4913860;28;20035;-67
2023/04/01 14:32:59;;;;;;;8.02;5.50;;;;;;;;;;4919610;28;20074;-67
2023/04/01 14:35:50;;;;;;;8.57;5.88;;;;;;;;;;4920567;28;20519;-67
2023/04/01 14:38:28;;;;;;;9.90;5.30;;;;;;;;;;4897573;28;20134;-68
2023/04/01 14:41:05;;;;;;;10.65;5.22;;;;;;;;;;4930381;28;20332;-67
2023/04/01 14:43:49;;;;;;;8.38;5.13;;;;;;;;;;4920628;28;20215;-69
2023/04/01 14:46:33;;;;;;;8.60;4.90;;;;;;;;;;4920995;28;20189;-67
2023/04/01 14:49:10;;;;;;;9.70;4.60;;;;;;;;;;4914833;28;20137;-67